»·PEaware :: N600MA KTUS-KPHX

N600MA :: KTUS-KPHX

FLIGHT INFORMATION

Flight Status: Arrived
Operator: Privately registered:
United States
More flights under this callsign
Pilot: Bruce B. (6887)
Aircraft: BEECH AIRCRAFT BONANZA
(BE36)
More flights by this aircraft type
Origin: KTUS Tucson Intl
United States
Destination: KPHX Phoenix Sky Harbor Intl
United States
More flights between these airports :: More routes between these airports
Route: +PIMMA V16 SACAT
File this flight plan on PilotEdge
Remarks:
Altitude:
(Current/Filed)
6,000ft
Speed:
(Current/Filed)
160kts
Departed: 29-Sep-17 06:42 PM
Arrived: 29-Sep-17 07:30 PM
Distance/Time
Traveled:
96nm/0:47
Distance/Time
To Go:
Arrived

Flight Plot

Page will automatically refresh every two minutes.

Flight plan parsing failed; only flown route is shown


Map Options




Map Legend


Flown Route
Filed Route
Departure Airport
Arrival Airport
Navaid (VOR, NDB)
Fix

Horizontal Profiles

Position Reports

Time Latitude Longitude Heading Altitude Ground
Speed
29-Sep-17 18:35 32.122513 -110.944491 135 2592ft 0kts
29-Sep-17 18:36 32.122513 -110.944491 135 2592ft 0kts
29-Sep-17 18:37 32.122513 -110.944491 135 2592ft 0kts
29-Sep-17 18:38 32.122513 -110.944491 135 2592ft 0kts
29-Sep-17 18:39 32.122513 -110.944491 135 2592ft 0kts
29-Sep-17 18:40 32.122513 -110.944491 135 2592ft 0kts
29-Sep-17 18:41 32.122513 -110.944491 135 2592ft 0kts
29-Sep-17 18:42 32.122513 -110.944491 135 2592ft 0kts
29-Sep-17 18:43 32.122513 -110.944491 135 2592ft 0kts
29-Sep-17 18:44 32.122512 -110.944490 135 2592ft 0kts
29-Sep-17 18:45 32.120459 -110.942804 134 2592ft 29kts
29-Sep-17 18:46 32.111691 -110.932578 125 2592ft 47kts
29-Sep-17 18:47 32.104619 -110.924272 145 2592ft 27kts
29-Sep-17 18:48 32.102641 -110.922492 224 2592ft 0kts
29-Sep-17 18:49 32.102640 -110.922493 224 2592ft 0kts
29-Sep-17 18:50 32.102552 -110.922594 224 2592ft 5kts
29-Sep-17 18:51 32.105137 -110.926315 317 2592ft 69kts
29-Sep-17 18:52 32.124368 -110.943904 331 3458ft 94kts
29-Sep-17 18:53 32.147172 -110.959272 331 4421ft 94kts
29-Sep-17 18:54 32.170575 -110.975908 325 5201ft 109kts
29-Sep-17 18:55 32.195723 -110.996714 332 6023ft 113kts
29-Sep-17 18:56 32.223776 -111.015761 328 6810ft 114kts
29-Sep-17 18:57 32.251306 -111.035911 326 7557ft 117kts
29-Sep-17 18:58 32.280563 -111.056463 327 8014ft 135kts
29-Sep-17 18:59 32.315439 -111.081047 327 7994ft 153kts
29-Sep-17 19:00 32.352269 -111.108676 325 7988ft 158kts
29-Sep-17 19:01 32.389401 -111.137253 325 7987ft 159kts
29-Sep-17 19:02 32.426663 -111.166037 325 7985ft 159kts
29-Sep-17 19:03 32.463802 -111.194838 324 7976ft 159kts
29-Sep-17 19:04 32.501117 -111.223662 324 7974ft 159kts
29-Sep-17 19:05 32.538372 -111.252456 324 7973ft 160kts
29-Sep-17 19:06 32.575519 -111.281279 324 7986ft 159kts
29-Sep-17 19:07 32.612819 -111.310352 324 7983ft 160kts
29-Sep-17 19:08 32.649982 -111.339435 324 7989ft 159kts
29-Sep-17 19:09 32.686369 -111.367997 324 8085ft 158kts
29-Sep-17 19:10 32.723207 -111.397064 324 8079ft 159kts
29-Sep-17 19:11 32.760151 -111.426351 324 8075ft 160kts
29-Sep-17 19:12 32.797641 -111.455091 324 8070ft 160kts
29-Sep-17 19:13 32.835207 -111.483709 324 8065ft 160kts
29-Sep-17 19:14 32.872854 -111.512503 324 8060ft 160kts
29-Sep-17 19:15 32.910329 -111.541295 324 8055ft 160kts
29-Sep-17 19:16 32.947743 -111.570173 324 8049ft 160kts
29-Sep-17 19:17 32.985244 -111.599237 324 8044ft 160kts
29-Sep-17 19:18 33.022582 -111.628303 324 8040ft 160kts
29-Sep-17 19:19 33.060299 -111.656737 326 8028ft 161kts
29-Sep-17 19:20 33.098623 -111.684657 326 8018ft 160kts
29-Sep-17 19:21 33.137823 -111.710247 330 8017ft 161kts
29-Sep-17 19:22 33.177996 -111.734395 330 8016ft 161kts
29-Sep-17 19:23 33.218048 -111.758586 330 7956ft 161kts
29-Sep-17 19:24 33.258546 -111.783076 330 6984ft 167kts
29-Sep-17 19:25 33.300506 -111.808274 330 5879ft 166kts
29-Sep-17 19:26 33.338711 -111.832080 326 4813ft 142kts
29-Sep-17 19:27 33.373871 -111.854158 328 3402ft 136kts
29-Sep-17 19:28 33.401504 -111.872094 319 2767ft 89kts
29-Sep-17 19:29 33.420324 -111.891446 301 2317ft 90kts
29-Sep-17 19:30 33.428870 -111.917491 272 2157ft 79kts
29-Sep-17 19:31 33.428815 -111.945135 267 2007ft 85kts
29-Sep-17 19:32 33.428819 -111.973123 268 1681ft 83kts
29-Sep-17 19:33 33.428835 -111.999179 271 1222ft 69kts
29-Sep-17 19:34 33.428840 -112.014168 268 1139ft 26kts
29-Sep-17 19:35 33.427804 -112.019077 270 1139ft 22kts
29-Sep-17 19:36 33.425418 -112.021184 85 1139ft 13kts
29-Sep-17 19:37 33.425605 -112.020961 6 1139ft 0kts
29-Sep-17 19:38 33.425605 -112.020961 6 1139ft 0kts
29-Sep-17 19:39 33.425605 -112.020961 6 1139ft 0kts

Navigation Log

Ident Type
Flight plan parsing failed, navigation log unavailable